createdAt,value
2018-09-21T00:01:32.658Z,0.23
2018-09-21T00:04:02.583Z,0.23
2018-09-21T00:06:31.545Z,0.33
2018-09-21T00:09:00.369Z,0.20
2018-09-21T00:11:29.249Z,0.30
2018-09-21T00:13:58.144Z,0.33
2018-09-21T00:16:26.821Z,0.30
2018-09-21T00:18:55.702Z,0.23
2018-09-21T00:21:24.495Z,0.60
2018-09-21T00:23:53.292Z,0.30
2018-09-21T00:26:22.243Z,0.40
2018-09-21T00:28:50.994Z,0.57
2018-09-21T00:31:19.728Z,0.30
2018-09-21T00:33:48.540Z,0.30
2018-09-21T00:36:17.263Z,0.37
2018-09-21T00:38:46.463Z,0.37
2018-09-21T00:41:15.106Z,0.30
2018-09-21T00:43:43.927Z,0.40
2018-09-21T00:46:12.714Z,0.30
2018-09-21T00:48:41.354Z,0.27
2018-09-21T00:51:11.293Z,0.30
2018-09-21T00:53:40.124Z,0.33
2018-09-21T00:56:09.070Z,0.30
2018-09-21T00:58:37.968Z,0.43
2018-09-21T01:01:06.750Z,0.30
2018-09-21T01:03:35.456Z,0.40
2018-09-21T01:06:04.163Z,0.50
2018-09-21T01:08:33.073Z,0.43
2018-09-21T01:11:01.856Z,0.67
2018-09-21T01:13:30.530Z,0.33
2018-09-21T01:15:59.402Z,0.60
2018-09-21T01:18:28.425Z,0.87
2018-09-21T01:20:57.115Z,0.57
2018-09-21T01:23:25.842Z,0.47
2018-09-21T01:25:54.548Z,0.43
2018-09-21T01:28:23.433Z,0.50
2018-09-21T01:30:52.367Z,0.30
2018-09-21T01:33:21.025Z,0.40
2018-09-21T01:35:49.750Z,0.50
2018-09-21T01:38:18.636Z,0.30
2018-09-21T01:40:47.459Z,0.40
2018-09-21T01:43:16.623Z,0.60
2018-09-21T01:45:45.480Z,0.40
2018-09-21T01:48:14.613Z,0.30
2018-09-21T01:50:43.353Z,0.50
2018-09-21T01:53:12.083Z,0.50
2018-09-21T01:55:41.041Z,0.57
2018-09-21T01:58:09.730Z,0.83
2018-09-21T02:00:38.615Z,0.40
2018-09-21T02:03:07.791Z,0.50
2018-09-21T02:05:36.666Z,0.60
2018-09-21T02:08:05.385Z,0.30
2018-09-21T02:10:34.339Z,0.30
2018-09-21T02:13:02.973Z,0.60
2018-09-21T02:15:31.812Z,0.43
2018-09-21T02:18:00.519Z,0.40
2018-09-21T02:20:29.200Z,0.30
2018-09-21T02:22:57.940Z,0.80
2018-09-21T02:25:26.601Z,0.50
2018-09-21T02:27:55.323Z,0.43
2018-09-21T02:30:23.948Z,0.60
2018-09-21T02:32:52.662Z,0.40
2018-09-21T02:35:21.510Z,0.80
2018-09-21T02:37:50.362Z,0.60
2018-09-21T02:40:19.015Z,0.50
2018-09-21T02:42:48.092Z,0.70
2018-09-21T02:45:16.795Z,0.53
2018-09-21T02:47:45.609Z,0.70
2018-09-21T02:50:14.273Z,0.50
2018-09-21T02:52:43.295Z,0.50
2018-09-21T02:55:11.999Z,0.60
2018-09-21T02:57:40.803Z,0.67
2018-09-21T03:00:10.041Z,0.60
2018-09-21T03:02:38.661Z,1.00
2018-09-21T03:05:07.890Z,0.97
2018-09-21T03:07:36.473Z,0.73
2018-09-21T03:10:05.397Z,0.60
2018-09-21T03:12:34.218Z,0.67
2018-09-21T03:15:02.860Z,0.60
2018-09-21T03:17:31.634Z,0.70
2018-09-21T03:20:00.488Z,0.40
2018-09-21T03:22:29.241Z,0.70
2018-09-21T03:24:58.000Z,0.80
2018-09-21T03:27:26.774Z,0.60
2018-09-21T03:29:55.346Z,0.60
2018-09-21T03:32:24.131Z,0.70
2018-09-21T03:34:52.900Z,0.90
2018-09-21T03:37:21.496Z,0.70
2018-09-21T03:39:50.275Z,0.80
2018-09-21T03:42:19.031Z,0.70
2018-09-21T03:44:47.751Z,0.93
2018-09-21T03:47:16.788Z,0.90
2018-09-21T03:49:45.519Z,1.07
2018-09-21T03:52:14.316Z,1.03
2018-09-21T03:54:43.060Z,0.93
2018-09-21T03:57:11.914Z,1.27
2018-09-21T03:59:40.808Z,1.07
2018-09-21T04:02:09.778Z,1.00
2018-09-21T04:04:41.513Z,1.00
2018-09-21T04:07:11.172Z,1.27
2018-09-21T04:09:40.030Z,0.90
2018-09-21T04:12:09.035Z,2.20
2018-09-21T04:14:37.700Z,1.40
2018-09-21T04:17:06.732Z,1.00
2018-09-21T04:19:35.501Z,0.87
2018-09-21T04:22:04.158Z,0.83
2018-09-21T04:24:32.796Z,0.73
2018-09-21T04:27:01.408Z,0.90
2018-09-21T04:29:30.146Z,1.67
2018-09-21T04:31:58.880Z,1.60
2018-09-21T04:34:27.724Z,1.00
2018-09-21T04:36:56.453Z,1.10
2018-09-21T04:39:25.206Z,1.20
2018-09-21T04:41:53.988Z,1.73
2018-09-21T04:44:22.690Z,1.37
2018-09-21T04:46:51.388Z,1.77
2018-09-21T04:49:20.170Z,1.70
2018-09-21T04:51:49.271Z,0.90
2018-09-21T04:54:18.047Z,1.13
2018-09-21T04:56:46.670Z,0.83
2018-09-21T04:59:15.665Z,0.90
2018-09-21T05:01:44.762Z,0.90
2018-09-21T05:04:14.493Z,1.03
2018-09-21T05:06:43.700Z,0.90
2018-09-21T05:09:12.672Z,1.00
2018-09-21T05:11:42.578Z,1.20
2018-09-21T05:14:11.840Z,1.20
2018-09-21T05:16:40.678Z,0.90
2018-09-21T05:19:10.043Z,1.17
2018-09-21T05:21:39.875Z,0.90
2018-09-21T05:24:09.381Z,1.10
2018-09-21T05:26:38.460Z,1.30
2018-09-21T05:29:08.493Z,1.23
2018-09-21T05:31:37.271Z,0.90
2018-09-21T05:34:06.311Z,1.00
2018-09-21T05:36:35.121Z,0.70
2018-09-21T05:39:04.005Z,1.00
2018-09-21T05:41:32.734Z,1.20
2018-09-21T05:44:01.304Z,0.60
2018-09-21T05:46:29.938Z,0.87
2018-09-21T05:48:58.559Z,0.77
2018-09-21T05:51:27.206Z,0.93
2018-09-21T05:53:55.965Z,0.70
2018-09-21T05:56:24.980Z,0.87
2018-09-21T05:58:53.730Z,1.00
2018-09-21T06:01:22.542Z,0.70
2018-09-21T06:03:51.294Z,0.90
2018-09-21T06:06:20.478Z,0.53
2018-09-21T06:08:49.156Z,0.70
2018-09-21T06:11:17.946Z,0.97
2018-09-21T06:13:46.807Z,1.03
2018-09-21T06:16:15.485Z,0.70
2018-09-21T06:18:44.492Z,0.90
2018-09-21T06:21:13.355Z,0.90
2018-09-21T06:23:42.027Z,0.80
2018-09-21T06:26:11.256Z,0.80
2018-09-21T06:28:40.146Z,0.60
2018-09-21T06:31:09.347Z,0.60
2018-09-21T06:33:38.448Z,0.90
2018-09-21T06:36:07.159Z,0.60
2018-09-21T06:38:36.031Z,0.50
2018-09-21T06:41:04.785Z,0.83
2018-09-21T06:43:33.573Z,0.60
2018-09-21T06:46:02.441Z,0.60
2018-09-21T06:48:31.177Z,0.60
2018-09-21T06:51:00.125Z,0.73
2018-09-21T06:53:28.704Z,0.80
2018-09-21T06:55:57.397Z,0.80
2018-09-21T06:58:26.247Z,0.80
2018-09-21T07:00:54.939Z,0.60
2018-09-21T07:03:23.703Z,0.60
2018-09-21T07:05:52.433Z,0.73
2018-09-21T07:08:21.368Z,0.50
2018-09-21T07:10:50.297Z,0.60
2018-09-21T07:13:19.094Z,0.87
2018-09-21T07:15:48.004Z,0.87
2018-09-21T07:18:23.470Z,0.40
2018-09-21T07:20:52.129Z,0.60
2018-09-21T07:23:21.043Z,0.90
2018-09-21T07:25:49.768Z,0.73
2018-09-21T07:28:18.401Z,0.80
2018-09-21T07:30:47.297Z,0.50
2018-09-21T07:33:16.065Z,0.80
2018-09-21T07:35:45.088Z,0.80
2018-09-21T07:38:14.149Z,0.47
2018-09-21T07:40:42.937Z,0.50
2018-09-21T07:43:12.175Z,0.60
2018-09-21T07:45:40.902Z,0.50
2018-09-21T07:48:10.201Z,0.60
2018-09-21T07:50:38.943Z,0.77
2018-09-21T07:53:07.806Z,0.60
2018-09-21T07:55:36.612Z,1.10
2018-09-21T07:58:05.509Z,0.73
2018-09-21T08:00:34.291Z,0.40
2018-09-21T08:03:03.123Z,0.70
2018-09-21T08:05:33.940Z,0.60
2018-09-21T08:08:04.357Z,0.67
2018-09-21T08:10:33.123Z,0.50
2018-09-21T08:13:02.369Z,0.70
2018-09-21T08:15:31.671Z,0.70
2018-09-21T08:18:00.624Z,0.50
2018-09-21T08:20:29.440Z,1.00
2018-09-21T08:22:58.267Z,0.87
2018-09-21T08:25:27.190Z,0.47
2018-09-21T08:27:55.925Z,0.80
2018-09-21T08:30:24.672Z,0.90
2018-09-21T08:32:53.400Z,0.67
2018-09-21T08:35:22.026Z,0.60
2018-09-21T08:37:50.764Z,1.33
2018-09-21T08:40:19.372Z,0.50
2018-09-21T08:42:48.679Z,0.60
2018-09-21T08:45:17.265Z,0.60
2018-09-21T08:47:46.005Z,0.50
2018-09-21T08:50:16.054Z,0.67
2018-09-21T08:52:44.940Z,0.83
2018-09-21T08:55:13.629Z,0.50
2018-09-21T08:57:42.540Z,0.70
2018-09-21T09:00:11.298Z,0.70
2018-09-21T09:02:40.194Z,0.67
2018-09-21T09:05:09.121Z,0.60
2018-09-21T09:07:38.549Z,0.60
2018-09-21T09:10:08.563Z,0.43
2018-09-21T09:12:38.614Z,0.90
2018-09-21T09:15:08.383Z,0.90
2018-09-21T09:17:37.298Z,0.67
2018-09-21T09:20:06.199Z,0.60
2018-09-21T09:22:35.058Z,0.50
2018-09-21T09:25:04.143Z,0.70
2018-09-21T09:27:33.026Z,0.67
2018-09-21T09:30:02.077Z,0.90
2018-09-21T09:32:30.771Z,0.97
2018-09-21T09:34:59.505Z,0.73
2018-09-21T09:37:28.778Z,0.77
2018-09-21T09:39:57.661Z,0.60
2018-09-21T09:42:26.594Z,0.77
2018-09-21T09:48:27.276Z,0.63
2018-09-21T09:50:56.061Z,0.70
2018-09-21T09:53:24.818Z,0.73
2018-09-21T09:55:53.546Z,0.60
2018-09-21T09:58:22.225Z,0.63
2018-09-21T10:00:51.944Z,0.83
2018-09-21T10:03:22.125Z,0.70
2018-09-21T10:05:51.185Z,0.50
2018-09-21T10:08:20.083Z,0.60
2018-09-21T10:10:49.152Z,0.70
2018-09-21T10:13:17.822Z,0.60
2018-09-21T10:15:46.800Z,0.77
2018-09-21T10:18:15.743Z,0.70
2018-09-21T10:20:44.765Z,0.60
2018-09-21T10:23:13.745Z,0.60
2018-09-21T10:25:42.380Z,0.50
2018-09-21T10:28:11.165Z,0.60
2018-09-21T10:30:39.849Z,0.70
2018-09-21T10:33:08.492Z,0.50
2018-09-21T10:35:37.259Z,1.30
2018-09-21T10:38:06.487Z,0.90
2018-09-21T10:40:35.424Z,0.70
2018-09-21T10:43:04.241Z,1.00
2018-09-21T10:45:32.953Z,0.80
2018-09-21T10:48:01.705Z,0.77
2018-09-21T10:50:30.740Z,0.80
2018-09-21T10:52:59.475Z,0.60
2018-09-21T10:55:28.357Z,0.73
2018-09-21T10:57:57.144Z,0.87
2018-09-21T11:00:25.838Z,0.63
2018-09-21T11:02:54.822Z,0.63
2018-09-21T11:05:23.792Z,0.70
2018-09-21T11:07:52.772Z,0.70
2018-09-21T11:10:21.531Z,0.77
2018-09-21T11:12:50.275Z,0.70
2018-09-21T11:15:19.020Z,0.97
2018-09-21T11:17:47.834Z,0.73
2018-09-21T11:20:16.596Z,0.90
2018-09-21T11:22:46.096Z,0.70
2018-09-21T11:25:15.121Z,0.80
2018-09-21T11:27:44.434Z,0.60
2018-09-21T11:30:13.419Z,0.70
2018-09-21T11:32:42.582Z,0.80
2018-09-21T11:35:11.425Z,0.80
2018-09-21T11:37:40.519Z,0.53
2018-09-21T11:40:09.300Z,0.90
2018-09-21T11:42:37.893Z,0.70
2018-09-21T11:45:07.384Z,0.80
2018-09-21T11:47:36.399Z,1.03
2018-09-21T11:50:05.098Z,0.80
2018-09-21T11:52:33.861Z,1.00
2018-09-21T11:55:02.533Z,0.80
2018-09-21T11:57:31.349Z,0.87
2018-09-21T12:00:00.470Z,0.90
2018-09-21T12:02:29.655Z,0.97
2018-09-21T12:04:58.478Z,0.73
2018-09-21T12:07:27.103Z,0.70
2018-09-21T12:09:55.897Z,0.97
2018-09-21T12:12:24.641Z,1.00
2018-09-21T12:14:53.434Z,1.00
2018-09-21T12:17:22.597Z,1.00
2018-09-21T12:19:51.586Z,0.80
2018-09-21T12:22:20.977Z,0.90
2018-09-21T12:24:49.917Z,1.20
2018-09-21T12:27:18.738Z,1.27
2018-09-21T12:29:47.691Z,0.90
2018-09-21T12:32:16.677Z,1.23
2018-09-21T12:34:45.568Z,0.97
2018-09-21T12:37:14.406Z,0.90
2018-09-21T12:39:43.327Z,1.60
2018-09-21T12:42:12.258Z,1.27
2018-09-21T12:44:40.959Z,1.60
2018-09-21T12:47:09.797Z,1.60
2018-09-21T12:49:39.239Z,1.80
2018-09-21T12:52:08.809Z,1.40
2018-09-21T12:54:38.127Z,1.30
2018-09-21T12:57:07.025Z,1.37
2018-09-21T12:59:35.894Z,1.40
2018-09-21T13:02:04.862Z,1.73
2018-09-21T13:04:33.670Z,1.50
2018-09-21T13:07:02.568Z,1.30
2018-09-21T13:09:32.564Z,1.60
2018-09-21T13:12:01.433Z,1.57
2018-09-21T13:14:30.070Z,1.67
2018-09-21T13:16:59.091Z,1.80
2018-09-21T13:19:28.001Z,1.80
2018-09-21T13:21:56.663Z,1.80
2018-09-21T13:24:25.728Z,1.53
2018-09-21T13:26:54.488Z,1.83
2018-09-21T13:29:23.201Z,2.00
2018-09-21T13:31:52.050Z,2.57
2018-09-21T13:34:20.835Z,2.07
2018-09-21T13:36:49.788Z,2.13
2018-09-21T13:39:18.480Z,1.90
2018-09-21T13:41:47.248Z,1.60
2018-09-21T13:44:15.856Z,2.47
2018-09-21T13:46:44.759Z,2.43
2018-09-21T13:49:13.923Z,2.60
2018-09-21T13:51:42.767Z,2.40
2018-09-21T13:54:11.522Z,2.30
2018-09-21T13:56:41.016Z,2.77
2018-09-21T13:59:09.732Z,2.07
2018-09-21T14:01:38.661Z,1.90
2018-09-21T14:04:07.634Z,2.20
2018-09-21T14:06:36.325Z,1.80
2018-09-21T14:09:06.281Z,1.67
2018-09-21T14:11:35.000Z,1.90
2018-09-21T14:14:04.009Z,1.90
2018-09-21T14:16:32.680Z,1.90
2018-09-21T14:19:01.396Z,1.40
2018-09-21T14:21:30.176Z,1.50
2018-09-21T14:23:58.844Z,1.67
2018-09-21T14:26:27.578Z,1.83
2018-09-21T14:28:56.520Z,1.30
2018-09-21T14:31:25.275Z,1.40
2018-09-21T14:34:24.549Z,1.50
2018-09-21T14:36:53.181Z,1.50
2018-09-21T14:39:21.970Z,1.20
2018-09-21T14:41:50.696Z,1.50
2018-09-21T14:44:19.581Z,1.70
2018-09-21T14:46:48.402Z,1.30
2018-09-21T14:49:17.504Z,1.30
2018-09-21T14:51:46.371Z,1.23
2018-09-21T14:54:15.453Z,1.37
2018-09-21T14:56:44.139Z,0.97
2018-09-21T14:59:13.221Z,1.30
2018-09-21T15:01:42.005Z,1.40
2018-09-21T15:04:10.700Z,1.60
2018-09-21T15:06:39.548Z,1.20
2018-09-21T15:09:09.935Z,1.70
2018-09-21T15:11:39.237Z,1.60
2018-09-21T15:14:08.287Z,1.43
2018-09-21T15:16:37.292Z,1.30
2018-09-21T15:19:06.139Z,1.37
2018-09-21T15:21:35.420Z,1.43
2018-09-21T15:24:04.345Z,1.40
2018-09-21T15:26:33.079Z,1.20
2018-09-21T15:29:01.997Z,1.57
2018-09-21T15:31:30.894Z,1.30
2018-09-21T15:33:59.548Z,1.63
2018-09-21T15:36:28.290Z,1.53
2018-09-21T15:38:57.358Z,1.50
2018-09-21T15:41:26.178Z,1.60
2018-09-21T15:43:55.050Z,1.80
2018-09-21T15:46:24.137Z,1.73
2018-09-21T15:48:53.216Z,2.40
2018-09-21T15:51:21.987Z,3.07
2018-09-21T15:53:51.016Z,2.27
2018-09-21T15:56:20.003Z,1.90
2018-09-21T15:58:48.788Z,1.90
2018-09-21T16:01:17.731Z,2.20
2018-09-21T16:03:46.460Z,2.00
2018-09-21T16:06:15.266Z,2.03
2018-09-21T16:08:44.369Z,1.50
2018-09-21T16:11:13.409Z,2.43
2018-09-21T16:13:42.399Z,2.10
2018-09-21T16:16:11.147Z,1.80
2018-09-21T16:18:40.004Z,2.00
2018-09-21T16:21:08.936Z,1.80
2018-09-21T16:23:37.621Z,1.60
2018-09-21T16:26:06.276Z,1.50
2018-09-21T16:28:35.012Z,1.20
2018-09-21T16:31:03.748Z,1.03
2018-09-21T16:33:32.506Z,0.70
2018-09-21T16:36:01.255Z,0.90
2018-09-21T16:38:29.956Z,0.90
2018-09-21T16:40:58.823Z,1.00
2018-09-21T16:43:27.661Z,0.67
2018-09-21T16:45:56.348Z,0.50
2018-09-21T16:48:25.231Z,0.93
2018-09-21T16:50:54.137Z,0.73
2018-09-21T16:53:23.376Z,1.00
2018-09-21T16:55:52.070Z,1.00
2018-09-21T16:58:21.196Z,0.77
2018-09-21T17:00:50.200Z,0.83
2018-09-21T17:03:19.257Z,1.07
2018-09-21T17:05:48.201Z,0.83
2018-09-21T17:08:16.913Z,1.03
2018-09-21T17:10:45.960Z,0.83
2018-09-21T17:13:14.936Z,1.00
2018-09-21T17:15:44.467Z,1.00
2018-09-21T17:18:13.211Z,1.13
2018-09-21T17:20:41.980Z,1.10
2018-09-21T17:23:11.161Z,1.20
2018-09-21T17:25:40.215Z,1.93
2018-09-21T17:28:09.228Z,1.40
2018-09-21T17:30:38.532Z,1.30
2018-09-21T17:33:07.561Z,1.70
2018-09-21T17:35:36.711Z,2.07
2018-09-21T17:38:06.181Z,2.23
2018-09-21T17:40:35.336Z,2.50
2018-09-21T17:43:04.239Z,2.47
2018-09-21T17:45:32.937Z,2.33
2018-09-21T17:48:01.870Z,3.37
2018-09-21T17:50:31.058Z,4.10
2018-09-21T17:53:00.268Z,5.00
2018-09-21T17:55:29.188Z,5.30
2018-09-21T17:57:58.098Z,5.47
2018-09-21T18:00:27.100Z,5.90
2018-09-21T18:02:56.037Z,6.90
2018-09-21T18:05:25.036Z,7.33
2018-09-21T18:07:53.992Z,8.00
2018-09-21T18:10:22.988Z,8.97
2018-09-21T18:12:51.901Z,8.33
2018-09-21T18:15:21.382Z,8.20
2018-09-21T18:17:50.508Z,9.17
2018-09-21T18:20:19.600Z,9.03
2018-09-21T18:22:48.665Z,11.37
2018-09-21T18:25:18.325Z,10.53
2018-09-21T18:27:47.016Z,10.67
2018-09-21T18:30:16.601Z,10.13
2018-09-21T18:32:45.631Z,11.63
2018-09-21T18:35:15.716Z,11.83
2018-09-21T18:37:44.901Z,11.50
2018-09-21T18:40:14.643Z,11.80
2018-09-21T18:42:43.311Z,11.90
2018-09-21T18:45:12.051Z,13.03
2018-09-21T18:47:42.062Z,13.03
2018-09-21T18:50:10.908Z,14.00
2018-09-21T18:52:41.643Z,13.13
2018-09-21T18:55:10.666Z,14.53
2018-09-21T18:57:39.593Z,13.30
2018-09-21T19:00:09.197Z,14.53
2018-09-21T19:02:38.026Z,15.07
2018-09-21T19:05:07.038Z,13.90
2018-09-21T19:07:35.873Z,13.47
2018-09-21T19:10:04.848Z,15.67
2018-09-21T19:12:33.634Z,14.10
2018-09-21T19:15:02.482Z,14.80
2018-09-21T19:17:31.220Z,14.60
2018-09-21T19:20:00.451Z,13.83
2018-09-21T19:22:29.512Z,14.43
2018-09-21T19:24:58.469Z,14.53
2018-09-21T19:27:27.285Z,14.40
2018-09-21T19:29:56.426Z,14.43
2018-09-21T19:32:25.326Z,14.77
2018-09-21T19:34:54.562Z,14.90
2018-09-21T19:37:24.039Z,14.13
2018-09-21T19:39:53.311Z,14.57
2018-09-21T19:42:22.286Z,14.73
2018-09-21T19:44:51.292Z,13.90
2018-09-21T19:47:21.015Z,14.57
2018-09-21T19:49:50.337Z,14.67
2018-09-21T19:52:19.919Z,13.70
2018-09-21T19:54:49.007Z,14.23
2018-09-21T19:57:18.191Z,13.93
2018-09-21T19:59:47.423Z,13.47
2018-09-21T20:02:16.202Z,13.80
2018-09-21T20:04:45.002Z,13.37
2018-09-21T20:07:14.016Z,12.97
2018-09-21T20:09:43.114Z,13.20
2018-09-21T20:12:12.609Z,13.43
2018-09-21T20:14:41.906Z,13.30
2018-09-21T20:17:10.668Z,13.73
2018-09-21T20:19:39.691Z,12.57
2018-09-21T20:22:09.735Z,13.33
2018-09-21T20:24:38.861Z,13.03
2018-09-21T20:27:07.928Z,13.00
2018-09-21T20:29:38.375Z,14.10
2018-09-21T20:32:13.865Z,13.73
2018-09-21T20:34:42.806Z,12.60
2018-09-21T20:37:11.819Z,13.30
2018-09-21T20:39:40.802Z,13.07
2018-09-21T20:42:09.849Z,13.60
2018-09-21T20:44:38.918Z,13.43
2018-09-21T20:47:08.037Z,13.97
2018-09-21T20:49:37.059Z,15.50
2018-09-21T20:52:06.475Z,14.63
2018-09-21T20:54:35.501Z,13.67
2018-09-21T20:57:04.383Z,14.70
2018-09-21T20:59:33.444Z,13.73
2018-09-21T21:02:02.436Z,14.00
2018-09-21T21:04:31.434Z,14.50
2018-09-21T21:07:00.289Z,12.83
2018-09-21T21:09:29.202Z,13.03
2018-09-21T21:11:58.200Z,12.90
2018-09-21T21:14:27.068Z,14.03
2018-09-21T21:16:55.985Z,13.43
2018-09-21T21:19:24.918Z,13.47
2018-09-21T21:21:56.349Z,13.93
2018-09-21T21:24:26.513Z,13.13
2018-09-21T21:26:55.692Z,14.03
2018-09-21T21:32:56.819Z,12.33
2018-09-21T21:35:25.479Z,13.80
2018-09-21T21:37:54.555Z,13.63
2018-09-21T21:40:24.512Z,13.80
2018-09-21T21:42:53.292Z,14.50
2018-09-21T21:45:22.221Z,13.43
2018-09-21T21:47:51.918Z,14.37
2018-09-21T21:50:20.547Z,14.43
2018-09-21T21:52:49.268Z,14.20
2018-09-21T21:55:17.975Z,14.67
2018-09-21T21:57:46.744Z,14.73
2018-09-21T22:00:15.875Z,14.40
2018-09-21T22:02:44.751Z,14.47
2018-09-21T22:05:13.615Z,14.10
2018-09-21T22:07:42.263Z,14.60
2018-09-21T22:10:11.018Z,14.20
2018-09-21T22:12:44.932Z,12.57
2018-09-21T22:15:19.076Z,14.83
2018-09-21T22:17:49.066Z,14.37
2018-09-21T22:20:18.193Z,14.63
2018-09-21T22:22:47.082Z,14.30
2018-09-21T22:25:16.081Z,14.90
2018-09-21T22:27:44.932Z,14.87
2018-09-21T22:30:14.170Z,14.27
2018-09-21T22:32:43.024Z,16.07
2018-09-21T22:35:11.718Z,15.67
2018-09-21T22:37:40.565Z,15.90
2018-09-21T22:40:09.530Z,15.33
2018-09-21T22:42:38.196Z,16.47
2018-09-21T22:45:07.173Z,17.13
2018-09-21T22:47:35.750Z,16.83
2018-09-21T22:50:04.668Z,15.80
2018-09-21T22:52:33.386Z,17.73
2018-09-21T22:55:02.136Z,16.60
2018-09-21T22:57:31.032Z,17.37
2018-09-21T22:59:59.838Z,18.27
2018-09-21T23:02:28.792Z,16.70
2018-09-21T23:04:57.939Z,17.30
2018-09-21T23:07:27.013Z,16.83
2018-09-21T23:09:55.698Z,16.93
2018-09-21T23:12:24.588Z,17.23
2018-09-21T23:14:53.237Z,17.30
2018-09-21T23:17:21.984Z,17.23
2018-09-21T23:19:50.585Z,16.10
2018-09-21T23:22:19.262Z,16.37
2018-09-21T23:24:48.761Z,17.33
2018-09-21T23:27:17.616Z,16.60
2018-09-21T23:29:46.327Z,16.20
2018-09-21T23:32:15.108Z,17.73
2018-09-21T23:34:43.863Z,16.73
2018-09-21T23:37:12.622Z,16.50
2018-09-21T23:39:41.422Z,16.27
2018-09-21T23:42:10.313Z,16.33
2018-09-21T23:44:38.962Z,16.57
2018-09-21T23:47:07.845Z,15.37
2018-09-21T23:49:36.610Z,16.07
2018-09-21T23:52:05.697Z,16.37
2018-09-21T23:54:34.887Z,15.50
2018-09-21T23:57:03.572Z,15.33
2018-09-21T23:59:32.346Z,14.93
